Time;durP1;ratioP1;P1;durP2;ratioP2;P2;SDS_P1;SDS_P2;PMS_P1;PMS_P2;Temp;Humidity;BMP_temperature;BMP_pressure;BME280_temperature;BME280_humidity;BME280_pressure;Samples;Min_cycle;Max_cycle;Signal;HPM_P1;HPM_P2
2022/06/17 00:00:40;;;;;;;5.03;1.57;;;;;;;;;;5043566;27;88330;-72
2022/06/17 00:03:09;;;;;;;2.70;1.73;;;;;;;;;;5041691;27;89309;-72
2022/06/17 00:05:38;;;;;;;1.70;1.60;;;;;;;;;;5036514;27;88318;-72
2022/06/17 00:08:07;;;;;;;4.30;1.77;;;;;;;;;;5036715;27;88508;-72
2022/06/17 00:10:35;;;;;;;4.77;1.50;;;;;;;;;;5040612;28;89466;-72
2022/06/17 00:13:05;;;;;;;3.30;1.80;;;;;;;;;;5041480;28;91071;-72
2022/06/17 00:15:34;;;;;;;3.77;2.13;;;;;;;;;;5038004;27;88520;-72
2022/06/17 00:18:03;;;;;;;1.40;1.30;;;;;;;;;;5042364;27;88611;-72
2022/06/17 00:20:33;;;;;;;2.53;1.90;;;;;;;;;;5043210;28;91189;-72
2022/06/17 00:23:01;;;;;;;2.50;1.77;;;;;;;;;;5039954;27;90677;-72
2022/06/17 00:25:30;;;;;;;2.17;1.97;;;;;;;;;;5033916;27;88560;-71
2022/06/17 00:27:59;;;;;;;2.93;2.00;;;;;;;;;;5023651;28;90448;-71
2022/06/17 00:30:27;;;;;;;2.43;1.70;;;;;;;;;;5024855;28;89375;-71
2022/06/17 00:32:56;;;;;;;2.37;1.80;;;;;;;;;;5034681;27;88973;-72
2022/06/17 00:35:26;;;;;;;3.40;1.80;;;;;;;;;;5042412;27;88690;-72
2022/06/17 00:37:55;;;;;;;1.97;1.77;;;;;;;;;;5043524;27;88377;-72
2022/06/17 00:40:24;;;;;;;2.63;1.83;;;;;;;;;;5037500;27;88954;-72
2022/06/17 00:42:52;;;;;;;2.73;1.80;;;;;;;;;;5034810;27;89133;-72
2022/06/17 00:45:23;;;;;;;4.53;1.90;;;;;;;;;;5027737;27;88456;-72
2022/06/17 00:47:53;;;;;;;2.40;1.47;;;;;;;;;;5037433;28;88515;-72
2022/06/17 00:50:24;;;;;;;2.67;2.00;;;;;;;;;;5032945;27;90886;-72
2022/06/17 00:52:54;;;;;;;2.30;1.70;;;;;;;;;;5041643;27;88921;-72
2022/06/17 00:55:25;;;;;;;4.70;2.13;;;;;;;;;;5038468;27;89525;-72
2022/06/17 00:57:53;;;;;;;2.53;2.07;;;;;;;;;;5034299;27;88667;-72
2022/06/17 01:00:22;;;;;;;2.80;2.30;;;;;;;;;;5033573;28;89292;-72
2022/06/17 01:02:51;;;;;;;2.93;2.20;;;;;;;;;;5041445;27;89322;-72
2022/06/17 01:05:20;;;;;;;3.60;2.07;;;;;;;;;;5041414;27;90998;-72
2022/06/17 01:07:49;;;;;;;2.10;1.90;;;;;;;;;;5040912;28;88312;-73
2022/06/17 01:10:19;;;;;;;3.67;2.30;;;;;;;;;;5040519;27;90026;-72
2022/06/17 01:12:56;;;;;;;3.83;2.63;;;;;;;;;;5021084;28;90903;-72
2022/06/17 01:15:25;;;;;;;3.03;2.03;;;;;;;;;;5021140;27;88320;-72
2022/06/17 01:17:54;;;;;;;2.13;1.70;;;;;;;;;;5025387;28;88729;-72
2022/06/17 01:20:22;;;;;;;3.37;2.07;;;;;;;;;;5032544;27;89498;-73
2022/06/17 01:22:53;;;;;;;1.67;1.57;;;;;;;;;;5036359;28;92072;-72
2022/06/17 01:25:22;;;;;;;1.70;1.60;;;;;;;;;;5041795;28;89739;-72
2022/06/17 01:27:50;;;;;;;2.30;1.87;;;;;;;;;;5036812;27;88490;-72
2022/06/17 01:30:20;;;;;;;2.40;1.60;;;;;;;;;;5021823;28;89862;-72
2022/06/17 01:32:49;;;;;;;2.67;1.73;;;;;;;;;;5021412;27;90477;-72
2022/06/17 01:35:18;;;;;;;2.00;1.80;;;;;;;;;;5023039;28;92115;-71
2022/06/17 01:37:47;;;;;;;2.40;1.90;;;;;;;;;;5028208;28;88509;-72
2022/06/17 01:40:17;;;;;;;1.77;1.67;;;;;;;;;;5027877;27;89507;-71
2022/06/17 01:42:45;;;;;;;2.43;1.60;;;;;;;;;;5036984;28;92300;-72
2022/06/17 01:45:14;;;;;;;1.87;1.60;;;;;;;;;;5028839;27;88507;-71
2022/06/17 01:47:43;;;;;;;1.60;1.43;;;;;;;;;;5034819;27;88614;-72
2022/06/17 01:50:13;;;;;;;3.53;2.00;;;;;;;;;;5025789;28;92986;-72
2022/06/17 01:52:42;;;;;;;1.67;1.57;;;;;;;;;;5035697;27;90091;-72
2022/06/17 01:55:13;;;;;;;1.70;1.60;;;;;;;;;;5039252;27;88440;-71
2022/06/17 01:57:45;;;;;;;2.47;1.70;;;;;;;;;;5035227;27;88678;-72
2022/06/17 02:00:14;;;;;;;2.00;1.40;;;;;;;;;;5036426;27;90532;-71
2022/06/17 02:02:43;;;;;;;2.03;1.60;;;;;;;;;;5024737;27;89215;-72
2022/06/17 02:05:12;;;;;;;1.20;1.10;;;;;;;;;;5027818;28;91098;-72
2022/06/17 02:07:42;;;;;;;2.63;1.60;;;;;;;;;;5024671;28;88490;-72
2022/06/17 02:10:10;;;;;;;2.07;1.77;;;;;;;;;;5040418;27;93628;-71
2022/06/17 02:12:39;;;;;;;2.77;2.13;;;;;;;;;;5033863;28;92936;-72
2022/06/17 02:15:10;;;;;;;1.93;1.60;;;;;;;;;;5040629;27;90862;-72
2022/06/17 02:17:39;;;;;;;2.20;2.03;;;;;;;;;;5032525;28;88342;-72
2022/06/17 02:20:09;;;;;;;1.97;1.60;;;;;;;;;;5021510;28;89071;-71
2022/06/17 02:22:37;;;;;;;3.47;2.57;;;;;;;;;;5040012;28;89481;-72
2022/06/17 02:25:07;;;;;;;3.27;1.87;;;;;;;;;;5029486;27;91304;-72
2022/06/17 02:27:35;;;;;;;2.60;2.07;;;;;;;;;;5022501;28;88617;-72
2022/06/17 02:30:04;;;;;;;2.20;2.00;;;;;;;;;;5035018;28;93328;-72
2022/06/17 02:32:34;;;;;;;4.50;2.27;;;;;;;;;;5031687;28;90140;-72
2022/06/17 02:35:03;;;;;;;2.17;1.87;;;;;;;;;;5024102;28;88524;-71
2022/06/17 02:37:31;;;;;;;1.67;1.57;;;;;;;;;;5020315;28;88469;-71
2022/06/17 02:40:00;;;;;;;1.63;1.53;;;;;;;;;;5023772;28;89428;-71
2022/06/17 02:42:30;;;;;;;1.60;1.43;;;;;;;;;;5026796;27;89936;-72
2022/06/17 02:44:59;;;;;;;1.70;1.60;;;;;;;;;;5035223;28;89798;-72
2022/06/17 02:47:28;;;;;;;2.70;1.43;;;;;;;;;;5021445;28;88302;-71
2022/06/17 02:49:57;;;;;;;3.47;2.10;;;;;;;;;;5032587;27;89513;-72
2022/06/17 02:52:28;;;;;;;5.87;1.50;;;;;;;;;;5024609;27;89922;-72
2022/06/17 02:54:57;;;;;;;2.13;1.73;;;;;;;;;;5027044;27;88852;-72
2022/06/17 02:57:26;;;;;;;2.23;1.53;;;;;;;;;;5037862;27;88516;-72
2022/06/17 02:59:55;;;;;;;2.20;1.70;;;;;;;;;;5049464;27;91023;-73
2022/06/17 03:02:24;;;;;;;1.90;1.57;;;;;;;;;;5036275;27;89593;-72
2022/06/17 03:04:53;;;;;;;2.00;1.60;;;;;;;;;;5046354;27;88427;-72
2022/06/17 03:07:23;;;;;;;2.77;1.90;;;;;;;;;;5027808;27;88607;-72
2022/06/17 03:09:52;;;;;;;2.10;1.90;;;;;;;;;;5036059;27;92186;-72
2022/06/17 03:12:21;;;;;;;2.57;1.60;;;;;;;;;;5031061;27;92306;-71
2022/06/17 03:14:50;;;;;;;2.90;1.77;;;;;;;;;;5026030;28;89417;-71
2022/06/17 03:17:19;;;;;;;2.33;1.73;;;;;;;;;;5044010;27;88490;-72
2022/06/17 03:19:48;;;;;;;4.63;1.90;;;;;;;;;;5026584;28;90756;-72
2022/06/17 03:22:16;;;;;;;2.13;1.93;;;;;;;;;;5035643;27;91449;-72
2022/06/17 03:24:48;;;;;;;4.70;2.97;;;;;;;;;;5020359;27;88441;-72
2022/06/17 03:27:18;;;;;;;2.77;1.87;;;;;;;;;;5020663;27;90319;-72
2022/06/17 03:29:46;;;;;;;3.03;2.73;;;;;;;;;;5032115;28;90579;-72
2022/06/17 03:32:17;;;;;;;5.70;3.80;;;;;;;;;;5019603;27;89835;-72
2022/06/17 03:34:47;;;;;;;5.47;2.67;;;;;;;;;;5027806;28;90041;-73
2022/06/17 03:37:17;;;;;;;4.20;2.90;;;;;;;;;;5036354;27;88667;-72
2022/06/17 03:39:48;;;;;;;5.83;3.57;;;;;;;;;;5034226;28;90689;-72
2022/06/17 03:42:17;;;;;;;3.93;3.17;;;;;;;;;;5039412;27;93041;-72
2022/06/17 03:44:48;;;;;;;3.30;3.00;;;;;;;;;;5036313;27;88445;-72
2022/06/17 03:47:17;;;;;;;4.20;3.80;;;;;;;;;;5036798;27;88615;-72
2022/06/17 03:49:49;;;;;;;5.60;3.77;;;;;;;;;;5020328;27;88405;-71
2022/06/17 03:52:19;;;;;;;3.80;3.07;;;;;;;;;;5018955;28;91990;-72
2022/06/17 03:54:48;;;;;;;6.53;4.17;;;;;;;;;;5019634;27;90396;-73
2022/06/17 03:57:17;;;;;;;6.20;3.70;;;;;;;;;;5033844;27;88668;-73
2022/06/17 03:59:47;;;;;;;6.83;4.20;;;;;;;;;;5026865;27;90581;-72
2022/06/17 04:02:15;;;;;;;4.13;3.23;;;;;;;;;;5023316;28;88801;-72
2022/06/17 04:04:45;;;;;;;5.00;3.53;;;;;;;;;;5019073;28;88962;-72
2022/06/17 04:07:13;;;;;;;4.90;2.97;;;;;;;;;;5031482;28;88833;-73
2022/06/17 04:09:42;;;;;;;4.20;3.33;;;;;;;;;;5038507;27;92769;-72
2022/06/17 04:12:20;;;;;;;4.83;3.53;;;;;;;;;;5038222;28;88556;-72
2022/06/17 04:14:50;;;;;;;4.13;3.53;;;;;;;;;;5018334;27;89909;-72
2022/06/17 04:17:20;;;;;;;4.87;3.83;;;;;;;;;;5022923;28;88582;-72
2022/06/17 04:19:51;;;;;;;5.33;3.80;;;;;;;;;;5031548;27;91735;-72
2022/06/17 04:22:21;;;;;;;3.67;3.20;;;;;;;;;;5038542;28;88801;-72
2022/06/17 04:24:52;;;;;;;6.17;3.37;;;;;;;;;;5025630;27;88817;-72
2022/06/17 04:27:22;;;;;;;4.33;3.33;;;;;;;;;;5023372;28;88482;-71
2022/06/17 04:29:51;;;;;;;5.43;3.37;;;;;;;;;;5037503;27;89272;-71
2022/06/17 04:32:21;;;;;;;4.70;2.90;;;;;;;;;;5031087;27;90050;-72
2022/06/17 04:34:50;;;;;;;3.93;3.23;;;;;;;;;;5035090;28;88517;-72
2022/06/17 04:37:20;;;;;;;5.60;3.73;;;;;;;;;;5040215;27;88584;-72
2022/06/17 04:39:49;;;;;;;3.53;3.23;;;;;;;;;;5026102;27;90103;-72
2022/06/17 04:42:19;;;;;;;4.80;3.63;;;;;;;;;;5029937;28;89289;-72
2022/06/17 04:44:49;;;;;;;3.23;2.80;;;;;;;;;;5025631;27;89055;-72
2022/06/17 04:47:19;;;;;;;3.07;2.77;;;;;;;;;;5043048;28;88471;-72
2022/06/17 04:49:52;;;;;;;4.30;2.60;;;;;;;;;;5041738;27;92700;-71
2022/06/17 04:52:24;;;;;;;4.77;2.63;;;;;;;;;;5042448;27;89071;-72
2022/06/17 04:54:52;;;;;;;3.47;2.87;;;;;;;;;;5025729;27;89882;-72
2022/06/17 04:57:21;;;;;;;3.20;2.53;;;;;;;;;;5022316;28;88400;-72
2022/06/17 04:59:58;;;;;;;5.10;3.27;;;;;;;;;;5037835;27;91141;-77
2022/06/17 05:02:27;;;;;;;2.97;2.63;;;;;;;;;;5044044;27;91899;-76
2022/06/17 05:04:59;;;;;;;3.40;2.77;;;;;;;;;;5041791;27;88980;-76
2022/06/17 05:07:28;;;;;;;4.23;2.87;;;;;;;;;;5042946;27;88238;-72
2022/06/17 05:10:17;;;;;;;4.97;2.70;;;;;;;;;;5042934;28;91136;-77
2022/06/17 05:12:47;;;;;;;4.47;2.50;;;;;;;;;;5041420;27;89480;-76
2022/06/17 05:15:17;;;;;;;3.57;2.83;;;;;;;;;;5036160;28;88388;-76
2022/06/17 05:17:45;;;;;;;3.10;2.40;;;;;;;;;;5033569;27;88614;-76
2022/06/17 05:20:14;;;;;;;2.63;2.03;;;;;;;;;;5042609;27;90366;-77
2022/06/17 05:22:43;;;;;;;4.23;2.30;;;;;;;;;;5042437;27;88738;-76
2022/06/17 05:25:12;;;;;;;3.33;2.33;;;;;;;;;;5041277;27;89135;-76
2022/06/17 05:27:41;;;;;;;3.97;2.03;;;;;;;;;;5042682;27;88361;-77
2022/06/17 05:30:11;;;;;;;4.60;2.23;;;;;;;;;;5043273;27;89750;-76
2022/06/17 05:32:41;;;;;;;3.27;2.30;;;;;;;;;;5042955;27;88377;-76
2022/06/17 05:35:10;;;;;;;3.03;2.50;;;;;;;;;;5042531;27;92721;-76
2022/06/17 05:37:38;;;;;;;3.23;2.00;;;;;;;;;;5041726;28;88388;-76
2022/06/17 05:40:08;;;;;;;2.67;2.20;;;;;;;;;;5041351;28;90286;-77
2022/06/17 05:42:37;;;;;;;3.23;2.40;;;;;;;;;;5023001;28;90435;-77
2022/06/17 05:45:06;;;;;;;3.07;2.10;;;;;;;;;;5021747;28;91867;-76
2022/06/17 05:47:34;;;;;;;2.70;2.47;;;;;;;;;;5021856;28;88534;-76
2022/06/17 05:50:04;;;;;;;2.70;2.00;;;;;;;;;;5021688;28;91463;-76
2022/06/17 05:52:33;;;;;;;3.40;2.63;;;;;;;;;;5023304;27;88427;-77
2022/06/17 05:55:01;;;;;;;3.13;1.83;;;;;;;;;;5034513;27;90530;-77
2022/06/17 05:57:30;;;;;;;2.97;1.80;;;;;;;;;;5022224;28;88551;-76
2022/06/17 05:59:58;;;;;;;2.27;1.90;;;;;;;;;;5021716;28;92651;-77
2022/06/17 06:02:34;;;;;;;4.50;1.77;;;;;;;;;;5022105;27;90337;-77
2022/06/17 06:05:02;;;;;;;2.30;1.97;;;;;;;;;;5021020;28;88320;-77
2022/06/17 06:07:32;;;;;;;2.57;2.07;;;;;;;;;;5022331;28;88344;-76
2022/06/17 06:10:01;;;;;;;1.93;1.80;;;;;;;;;;5021637;28;90773;-77
2022/06/17 06:15:12;;;;;;;4.73;2.33;;;;;;;;;;5037524;27;89210;-77
2022/06/17 06:17:40;;;;;;;2.07;1.80;;;;;;;;;;5025777;27;88156;-77
2022/06/17 06:20:10;;;;;;;2.60;1.97;;;;;;;;;;5040767;27;89816;-77
2022/06/17 06:22:40;;;;;;;2.10;1.80;;;;;;;;;;5039304;27;89254;-76
2022/06/17 06:25:08;;;;;;;1.67;1.57;;;;;;;;;;5054904;27;89395;-77
2022/06/17 06:27:37;;;;;;;2.93;1.57;;;;;;;;;;5034388;27;88650;-77
2022/06/17 06:30:06;;;;;;;2.57;1.73;;;;;;;;;;5021903;28;89419;-77
2022/06/17 06:32:34;;;;;;;2.30;1.73;;;;;;;;;;5021868;28;91001;-77
2022/06/17 06:35:02;;;;;;;2.90;1.77;;;;;;;;;;5021985;28;88399;-77
2022/06/17 06:37:31;;;;;;;2.20;1.63;;;;;;;;;;5023176;27;88666;-77
2022/06/17 06:40:00;;;;;;;1.30;1.20;;;;;;;;;;5042501;27;93134;-76
2022/06/17 06:42:34;;;;;;;2.40;2.00;;;;;;;;;;5041925;28;88798;-77
2022/06/17 06:45:04;;;;;;;2.40;1.40;;;;;;;;;;5041371;28;88472;-77
2022/06/17 06:47:33;;;;;;;2.87;1.37;;;;;;;;;;5042061;28;88602;-75
2022/06/17 06:50:02;;;;;;;5.73;2.03;;;;;;;;;;5030672;27;88981;-76
2022/06/17 06:52:30;;;;;;;1.50;1.40;;;;;;;;;;5042475;27;90018;-78
2022/06/17 06:55:00;;;;;;;1.47;1.37;;;;;;;;;;5043173;28;88881;-77
2022/06/17 06:57:29;;;;;;;2.73;1.30;;;;;;;;;;5031569;27;88477;-78
2022/06/17 07:00:01;;;;;;;2.07;1.30;;;;;;;;;;5035611;28;93709;-76
2022/06/17 07:02:29;;;;;;;2.07;1.50;;;;;;;;;;5021633;28;88620;-77
2022/06/17 07:04:58;;;;;;;1.90;1.23;;;;;;;;;;5035755;28;91782;-76
2022/06/17 07:07:27;;;;;;;2.40;1.33;;;;;;;;;;5040887;27;88571;-78
2022/06/17 07:09:56;;;;;;;3.00;1.50;;;;;;;;;;5023717;28;92464;-79
2022/06/17 07:12:26;;;;;;;1.50;1.30;;;;;;;;;;5021880;28;89693;-80
2022/06/17 07:14:55;;;;;;;2.53;1.30;;;;;;;;;;5033814;28;89257;-80
2022/06/17 07:17:24;;;;;;;3.03;1.53;;;;;;;;;;5033685;27;88639;-80
2022/06/17 07:19:55;;;;;;;2.97;1.40;;;;;;;;;;5031848;27;92225;-80
2022/06/17 07:22:24;;;;;;;1.10;1.00;;;;;;;;;;5038171;27;88794;-81
2022/06/17 07:24:53;;;;;;;1.60;1.27;;;;;;;;;;5037734;27;88416;-81
2022/06/17 07:27:21;;;;;;;4.23;1.37;;;;;;;;;;5021483;28;88469;-79
2022/06/17 07:29:51;;;;;;;4.73;1.80;;;;;;;;;;5025582;28;93039;-80
2022/06/17 07:32:19;;;;;;;2.40;1.40;;;;;;;;;;5042028;28;93092;-80
2022/06/17 07:34:48;;;;;;;3.40;1.00;;;;;;;;;;5040270;28;89594;-70
2022/06/17 07:40:04;;;;;;;1.40;1.30;;;;;;;;;;5026188;27;90558;-69
2022/06/17 07:42:38;;;;;;;1.30;1.20;;;;;;;;;;5036722;27;89044;-69
2022/06/17 07:45:09;;;;;;;2.80;1.37;;;;;;;;;;5029528;28;90319;-69
2022/06/17 07:47:39;;;;;;;1.30;1.20;;;;;;;;;;5035407;27;89050;-70
2022/06/17 07:50:08;;;;;;;2.80;0.97;;;;;;;;;;5040061;27;90514;-69
2022/06/17 07:52:36;;;;;;;2.03;1.30;;;;;;;;;;5043010;28;88416;-69
2022/06/17 07:55:05;;;;;;;0.97;0.97;;;;;;;;;;5043076;27;88251;-69
2022/06/17 07:57:40;;;;;;;2.77;1.00;;;;;;;;;;5027802;27;88639;-69
2022/06/17 08:00:11;;;;;;;2.90;1.23;;;;;;;;;;5025843;27;93909;-69
2022/06/17 08:02:39;;;;;;;1.27;1.17;;;;;;;;;;5031324;28;89582;-74
2022/06/17 08:05:08;;;;;;;6.47;1.20;;;;;;;;;;5030242;27;89872;-72
2022/06/17 08:07:37;;;;;;;1.40;1.20;;;;;;;;;;5024181;28;88703;-74
2022/06/17 08:10:06;;;;;;;1.10;0.83;;;;;;;;;;5023034;28;89970;-74
2022/06/17 08:12:34;;;;;;;2.37;1.20;;;;;;;;;;5024648;28;90086;-74
2022/06/17 08:15:02;;;;;;;1.33;0.77;;;;;;;;;;5041913;27;88855;-74
2022/06/17 08:17:32;;;;;;;1.90;0.93;;;;;;;;;;5043008;27;88468;-74
2022/06/17 08:20:00;;;;;;;1.27;1.10;;;;;;;;;;5042513;28;92695;-74
2022/06/17 08:22:29;;;;;;;1.10;0.90;;;;;;;;;;5043528;28;89598;-74
2022/06/17 08:24:57;;;;;;;3.10;1.00;;;;;;;;;;5038871;27;88669;-73
2022/06/17 08:27:26;;;;;;;2.40;1.10;;;;;;;;;;5031064;27;88453;-75
2022/06/17 08:29:55;;;;;;;1.33;1.03;;;;;;;;;;5035949;28;89654;-74
2022/06/17 08:32:48;;;;;;;1.90;1.00;;;;;;;;;;5043589;27;92455;-74
2022/06/17 08:35:18;;;;;;;4.83;1.13;;;;;;;;;;5042801;27;88294;-75
2022/06/17 08:37:53;;;;;;;1.23;1.00;;;;;;;;;;5041975;27;88583;-74
2022/06/17 08:40:32;;;;;;;1.30;0.97;;;;;;;;;;5042396;27;89497;-75
2022/06/17 08:43:03;;;;;;;1.13;0.80;;;;;;;;;;5041785;27;90028;-74
2022/06/17 08:45:33;;;;;;;0.93;0.90;;;;;;;;;;5042889;27;88828;-76
2022/06/17 08:48:08;;;;;;;2.23;0.90;;;;;;;;;;5043168;27;88729;-76
2022/06/17 08:50:51;;;;;;;1.83;0.97;;;;;;;;;;5043308;28;89358;-76
2022/06/17 08:53:30;;;;;;;0.90;0.83;;;;;;;;;;5040799;27;89795;-74
2022/06/17 08:56:07;;;;;;;1.47;0.93;;;;;;;;;;5043142;27;89345;-76
2022/06/17 08:58:37;;;;;;;8.97;1.60;;;;;;;;;;5043544;27;88507;-76
2022/06/17 09:01:08;;;;;;;86.47;11.13;;;;;;;;;;5040012;27;90706;-77
2022/06/17 09:03:40;;;;;;;93.73;14.73;;;;;;;;;;5041436;28;89960;-76
2022/06/17 09:06:13;;;;;;;86.13;11.30;;;;;;;;;;5041998;27;88993;-76
2022/06/17 09:08:48;;;;;;;43.33;6.93;;;;;;;;;;5042482;27;88608;-66
2022/06/17 09:11:20;;;;;;;21.37;5.07;;;;;;;;;;5029501;28;93423;-76
2022/06/17 09:13:53;;;;;;;12.80;2.23;;;;;;;;;;5041291;28;90022;-76
2022/06/17 09:16:23;;;;;;;9.00;1.90;;;;;;;;;;5035243;28;88434;-76
2022/06/17 09:18:55;;;;;;;5.00;2.00;;;;;;;;;;5023891;28;88626;-76
2022/06/17 09:21:24;;;;;;;8.03;1.63;;;;;;;;;;5030855;27;90740;-76
2022/06/17 09:23:54;;;;;;;4.43;1.03;;;;;;;;;;5031606;28;91071;-76
2022/06/17 09:26:23;;;;;;;4.30;1.33;;;;;;;;;;5036342;27;88591;-76
2022/06/17 09:28:55;;;;;;;1.27;1.10;;;;;;;;;;5032225;28;88541;-76
2022/06/17 09:31:24;;;;;;;2.13;1.17;;;;;;;;;;5038330;28;90884;-76
2022/06/17 09:33:54;;;;;;;8.00;1.40;;;;;;;;;;5034347;27;92490;-76
2022/06/17 09:36:24;;;;;;;2.57;1.20;;;;;;;;;;5031237;28;88407;-76
2022/06/17 09:38:56;;;;;;;1.20;1.10;;;;;;;;;;5034871;28;88489;-76
2022/06/17 09:41:25;;;;;;;3.23;1.20;;;;;;;;;;5019756;28;88987;-66
2022/06/17 09:43:54;;;;;;;3.77;1.60;;;;;;;;;;5028988;28;89099;-66
2022/06/17 09:46:24;;;;;;;4.00;1.57;;;;;;;;;;5029932;27;89823;-67
2022/06/17 09:48:55;;;;;;;4.47;1.73;;;;;;;;;;5029752;27;88462;-68
2022/06/17 09:51:24;;;;;;;4.30;2.30;;;;;;;;;;5024943;28;90639;-67
2022/06/17 09:53:53;;;;;;;7.43;3.93;;;;;;;;;;5039398;27;90098;-65
2022/06/17 09:56:23;;;;;;;6.03;4.73;;;;;;;;;;5031227;27;88805;-67
2022/06/17 09:58:53;;;;;;;8.97;3.53;;;;;;;;;;5022921;28;88604;-69
2022/06/17 10:01:25;;;;;;;4.50;2.47;;;;;;;;;;5022500;27;90614;-68
2022/06/17 10:03:53;;;;;;;3.07;2.07;;;;;;;;;;5039044;27;88924;-69
2022/06/17 10:06:28;;;;;;;4.30;2.20;;;;;;;;;;5021238;27;88854;-69
2022/06/17 10:09:01;;;;;;;4.93;1.70;;;;;;;;;;5021269;28;88619;-70
2022/06/17 10:11:33;;;;;;;2.00;1.27;;;;;;;;;;5036620;27;92078;-68
2022/06/17 10:14:06;;;;;;;3.03;1.40;;;;;;;;;;5020335;28;89579;-68
2022/06/17 10:19:26;;;;;;;1.37;1.20;;;;;;;;;;5038903;27;88622;-69
2022/06/17 10:21:58;;;;;;;2.27;1.30;;;;;;;;;;5039405;27;91113;-68
2022/06/17 10:24:27;;;;;;;2.53;1.60;;;;;;;;;;5032298;27;92749;-68
2022/06/17 10:27:01;;;;;;;2.90;1.80;;;;;;;;;;5030438;27;88934;-68
2022/06/17 10:29:39;;;;;;;1.73;1.43;;;;;;;;;;5034214;28;88913;-70
2022/06/17 10:32:07;;;;;;;1.70;1.20;;;;;;;;;;5038029;27;89698;-69
2022/06/17 10:34:42;;;;;;;2.63;1.50;;;;;;;;;;5037690;27;90183;-68
2022/06/17 10:37:10;;;;;;;3.57;1.07;;;;;;;;;;5038131;27;89194;-69
2022/06/17 10:39:51;;;;;;;2.10;1.00;;;;;;;;;;5023983;27;88640;-67
2022/06/17 10:42:22;;;;;;;1.73;1.33;;;;;;;;;;5037711;27;89408;-68
2022/06/17 10:44:51;;;;;;;1.67;1.20;;;;;;;;;;5037679;27;88972;-69
2022/06/17 10:47:26;;;;;;;1.20;1.10;;;;;;;;;;5040484;27;89013;-68
2022/06/17 10:49:55;;;;;;;2.63;1.43;;;;;;;;;;5040911;27;88432;-68
2022/06/17 10:52:32;;;;;;;1.63;1.50;;;;;;;;;;5039586;28;90074;-68
2022/06/17 10:55:04;;;;;;;1.57;1.20;;;;;;;;;;5039890;28;90094;-68
2022/06/17 10:57:37;;;;;;;2.13;1.30;;;;;;;;;;5038334;27;88524;-68
2022/06/17 11:00:15;;;;;;;1.93;1.30;;;;;;;;;;5040540;28;88377;-68
2022/06/17 11:02:44;;;;;;;1.40;1.13;;;;;;;;;;5039800;27;91129;-68
2022/06/17 11:05:12;;;;;;;4.30;1.20;;;;;;;;;;5039693;27;90118;-68
2022/06/17 11:07:41;;;;;;;2.07;1.40;;;;;;;;;;5039672;27;88856;-68
2022/06/17 11:10:23;;;;;;;6.20;1.30;;;;;;;;;;5039562;27;88448;-69
2022/06/17 11:12:56;;;;;;;2.03;1.83;;;;;;;;;;5040773;27;90598;-77
2022/06/17 11:15:25;;;;;;;5.30;1.70;;;;;;;;;;5040147;28;90805;-78
2022/06/17 11:17:55;;;;;;;2.83;1.60;;;;;;;;;;5039703;27;88768;-76
2022/06/17 11:20:24;;;;;;;3.63;1.37;;;;;;;;;;5040700;28;88518;-77
2022/06/17 11:23:18;;;;;;;1.73;1.33;;;;;;;;;;5039765;27;89268;-76
2022/06/17 11:25:46;;;;;;;3.40;1.43;;;;;;;;;;5038756;27;90216;-77
2022/06/17 11:28:22;;;;;;;1.70;1.30;;;;;;;;;;5023955;27;89956;-77
2022/06/17 11:30:52;;;;;;;1.40;1.27;;;;;;;;;;5024215;27;88600;-76
2022/06/17 11:33:22;;;;;;;3.13;1.47;;;;;;;;;;5023935;28;89086;-77
2022/06/17 11:36:00;;;;;;;6.67;1.10;;;;;;;;;;5029966;27;88946;-76
2022/06/17 11:38:28;;;;;;;2.07;1.50;;;;;;;;;;5034319;27;89257;-77
2022/06/17 11:41:19;;;;;;;1.80;1.40;;;;;;;;;;5039098;27;88576;-76
2022/06/17 11:43:49;;;;;;;1.70;1.00;;;;;;;;;;5039203;27;90291;-76
2022/06/17 11:46:18;;;;;;;2.20;1.30;;;;;;;;;;5019987;28;89541;-77
2022/06/17 11:48:47;;;;;;;2.23;1.17;;;;;;;;;;5049793;27;89840;-76
2022/06/17 11:51:17;;;;;;;1.57;1.07;;;;;;;;;;5041247;27;90067;-76
2022/06/17 11:53:48;;;;;;;1.97;1.00;;;;;;;;;;5054092;27;89598;-76
2022/06/17 11:56:33;;;;;;;1.80;1.10;;;;;;;;;;5055580;27;93077;-75
2022/06/17 11:59:09;;;;;;;6.70;1.43;;;;;;;;;;5057983;27;88844;-76
2022/06/17 12:01:37;;;;;;;2.93;1.37;;;;;;;;;;5043229;27;88371;-77
2022/06/17 12:04:06;;;;;;;2.60;1.03;;;;;;;;;;5049037;27;89509;-76
2022/06/17 12:06:44;;;;;;;2.23;1.20;;;;;;;;;;5057442;27;88890;-76
2022/06/17 12:09:13;;;;;;;2.10;1.47;;;;;;;;;;5053853;27;88472;-75
2022/06/17 12:11:45;;;;;;;4.10;2.00;;;;;;;;;;5052327;27;88425;-77
2022/06/17 12:14:17;;;;;;;3.90;2.30;;;;;;;;;;5059007;27;89488;-76
2022/06/17 12:16:46;;;;;;;9.30;3.67;;;;;;;;;;5053176;27;88971;-76
2022/06/17 12:19:34;;;;;;;7.83;4.07;;;;;;;;;;5054926;27;90948;-75
2022/06/17 12:22:04;;;;;;;7.93;4.40;;;;;;;;;;5050109;27;88519;-75
2022/06/17 12:24:34;;;;;;;16.30;7.47;;;;;;;;;;5052226;27;90427;-75
2022/06/17 12:27:04;;;;;;;12.83;5.87;;;;;;;;;;5054855;27;90173;-76
2022/06/17 12:29:37;;;;;;;9.97;5.07;;;;;;;;;;5053564;27;89343;-75
2022/06/17 12:32:06;;;;;;;8.53;4.63;;;;;;;;;;5052842;27;88525;-75
2022/06/17 12:34:36;;;;;;;8.53;5.33;;;;;;;;;;5053264;27;91060;-76
2022/06/17 12:37:06;;;;;;;5.07;3.23;;;;;;;;;;5054623;27;91334;-75
2022/06/17 12:39:36;;;;;;;15.40;7.13;;;;;;;;;;5058045;27;88796;-75
2022/06/17 12:42:05;;;;;;;20.23;8.30;;;;;;;;;;5054354;27;89111;-76
2022/06/17 12:44:39;;;;;;;12.27;4.90;;;;;;;;;;5041604;27;90676;-75
2022/06/17 12:47:09;;;;;;;8.57;4.27;;;;;;;;;;5032980;27;92441;-75
2022/06/17 12:55:22;;;;;;;12.50;4.93;;;;;;;;;;5024903;27;92147;-75
2022/06/17 12:57:52;;;;;;;10.23;3.63;;;;;;;;;;5039224;28;92466;-75
2022/06/17 13:00:23;;;;;;;6.03;2.93;;;;;;;;;;5033354;27;88287;-75
2022/06/17 13:02:59;;;;;;;5.90;2.70;;;;;;;;;;5022132;28;88327;-75
2022/06/17 13:05:27;;;;;;;3.33;2.00;;;;;;;;;;5027832;27;89627;-76
2022/06/17 13:08:02;;;;;;;4.80;2.30;;;;;;;;;;5041075;27;92043;-76
2022/06/17 13:10:42;;;;;;;5.00;1.87;;;;;;;;;;5047696;27;90728;-75
2022/06/17 13:13:21;;;;;;;3.90;2.60;;;;;;;;;;5040393;28;88487;-75
2022/06/17 13:15:55;;;;;;;2.80;2.00;;;;;;;;;;5040602;27;89554;-79
2022/06/17 13:18:25;;;;;;;2.97;2.20;;;;;;;;;;5041459;28;90231;-73
2022/06/17 13:20:55;;;;;;;5.40;2.83;;;;;;;;;;5039269;28;89016;-74
2022/06/17 13:23:25;;;;;;;3.37;2.47;;;;;;;;;;5041938;27;88552;-74
2022/06/17 18:44:20;;;;;;;18.10;8.07;;;;;;;;;;5142827;27;88924;-72
2022/06/17 18:46:49;;;;;;;13.50;6.80;;;;;;;;;;5134072;27;88469;-72
2022/06/17 18:49:17;;;;;;;8.63;4.60;;;;;;;;;;5137316;27;88465;-72
2022/06/17 18:51:46;;;;;;;8.90;5.00;;;;;;;;;;5139689;27;90662;-76
2022/06/17 18:54:15;;;;;;;8.80;4.33;;;;;;;;;;5139527;27;89868;-74
2022/06/17 18:56:43;;;;;;;6.50;3.80;;;;;;;;;;5139328;27;89579;-74
2022/06/17 19:02:45;;;;;;;4.30;2.40;;;;;;;;;;5132150;27;89476;-74
2022/06/17 19:05:41;;;;;;;4.97;2.73;;;;;;;;;;5139781;27;88564;-74
2022/06/17 19:19:31;;;;;;;2.90;2.07;;;;;;;;;;5070713;27;88743;-74
2022/06/17 19:21:59;;;;;;;4.57;2.33;;;;;;;;;;5074865;27;88745;-73
2022/06/17 19:24:28;;;;;;;2.77;2.27;;;;;;;;;;5075340;27;90596;-70
2022/06/17 19:27:17;;;;;;;3.13;2.03;;;;;;;;;;5072420;27;90952;-71
2022/06/17 19:29:46;;;;;;;6.70;1.93;;;;;;;;;;5067211;27;89444;-70
2022/06/17 19:32:16;;;;;;;2.57;2.20;;;;;;;;;;5053762;27;88733;-69
2022/06/17 19:34:46;;;;;;;3.27;2.77;;;;;;;;;;5054143;27;88572;-75
2022/06/17 19:37:14;;;;;;;4.93;2.33;;;;;;;;;;5054896;27;92813;-76
2022/06/17 19:39:44;;;;;;;3.53;2.50;;;;;;;;;;5095160;27;88267;-75
2022/06/17 19:42:13;;;;;;;4.80;3.40;;;;;;;;;;5118265;27;88571;-74
2022/06/17 19:44:49;;;;;;;5.70;3.37;;;;;;;;;;5117958;27;89451;-76
2022/06/17 19:47:19;;;;;;;4.07;3.03;;;;;;;;;;5117316;27;90147;-75
2022/06/17 19:49:49;;;;;;;3.00;2.60;;;;;;;;;;5118495;27;88266;-76
2022/06/17 19:52:22;;;;;;;3.50;2.77;;;;;;;;;;5107036;27;88601;-76
2022/06/17 19:54:51;;;;;;;2.77;2.10;;;;;;;;;;5106381;27;88408;-75
2022/06/17 19:57:19;;;;;;;2.43;1.90;;;;;;;;;;5104603;27;92580;-76
2022/06/17 19:59:48;;;;;;;3.10;1.77;;;;;;;;;;5105056;27;88590;-74
2022/06/17 20:02:18;;;;;;;3.70;2.17;;;;;;;;;;5102450;27;88680;-73
2022/06/17 20:04:47;;;;;;;3.00;2.00;;;;;;;;;;5103868;27;89810;-75
2022/06/17 20:07:17;;;;;;;2.37;1.67;;;;;;;;;;5099004;27;88966;-75
2022/06/17 20:09:46;;;;;;;2.00;1.80;;;;;;;;;;5102516;27;88586;-75
2022/06/17 20:12:14;;;;;;;2.23;2.00;;;;;;;;;;5097964;27;89135;-75
2022/06/17 20:14:43;;;;;;;2.50;2.03;;;;;;;;;;5103795;27;90546;-77
2022/06/17 20:17:11;;;;;;;2.17;1.97;;;;;;;;;;5097532;27;89202;-76
2022/06/17 20:19:40;;;;;;;4.00;1.73;;;;;;;;;;5104292;27;88468;-77
2022/06/17 20:22:09;;;;;;;3.40;1.87;;;;;;;;;;5104770;27;88531;-76
2022/06/17 20:24:39;;;;;;;1.97;1.77;;;;;;;;;;5104713;27;90371;-76
2022/06/17 20:27:07;;;;;;;1.97;1.73;;;;;;;;;;5103963;27;91152;-76
2022/06/17 20:29:36;;;;;;;10.33;6.10;;;;;;;;;;5101713;27;88515;-77
2022/06/17 20:32:05;;;;;;;18.33;9.10;;;;;;;;;;5101299;27;88415;-75
2022/06/17 20:34:34;;;;;;;12.90;6.13;;;;;;;;;;5098444;27;88753;-75
2022/06/17 20:37:04;;;;;;;10.03;5.23;;;;;;;;;;5102963;27;90927;-76
2022/06/17 20:39:34;;;;;;;7.50;4.50;;;;;;;;;;5104400;27;88439;-76
2022/06/17 20:42:09;;;;;;;6.87;3.77;;;;;;;;;;5092478;27;88460;-76
2022/06/17 20:50:10;;;;;;;6.00;3.20;;;;;;;;;;5105363;27;88247;-75
2022/06/17 20:52:42;;;;;;;5.40;3.37;;;;;;;;;;5100007;27;88428;-76
2022/06/17 20:55:12;;;;;;;2.70;2.20;;;;;;;;;;5103809;27;92236;-75